createdAt,value
2018-05-26T00:00:33.412Z,1.30
2018-05-26T00:03:00.981Z,1.43
2018-05-26T00:05:28.479Z,1.40
2018-05-26T00:07:56.240Z,1.77
2018-05-26T00:10:23.911Z,1.40
2018-05-26T00:12:51.664Z,1.80
2018-05-26T00:15:19.046Z,1.67
2018-05-26T00:17:46.630Z,1.30
2018-05-26T00:20:15.967Z,1.43
2018-05-26T00:22:49.387Z,1.60
2018-05-26T00:25:17.256Z,1.30
2018-05-26T00:27:45.223Z,1.17
2018-05-26T00:30:12.997Z,1.77
2018-05-26T00:32:40.870Z,1.50
2018-05-26T00:35:08.840Z,1.50
2018-05-26T00:37:36.695Z,1.90
2018-05-26T00:40:04.470Z,1.57
2018-05-26T00:42:32.335Z,1.40
2018-05-26T00:44:59.984Z,1.13
2018-05-26T00:47:27.448Z,1.40
2018-05-26T00:49:55.672Z,1.40
2018-05-26T00:52:23.271Z,1.43
2018-05-26T00:54:50.741Z,1.40
2018-05-26T00:57:18.215Z,1.43
2018-05-26T00:59:45.756Z,1.30
2018-05-26T01:02:13.623Z,1.30
2018-05-26T01:04:41.396Z,1.43
2018-05-26T01:07:09.297Z,1.53
2018-05-26T01:09:40.299Z,1.37
2018-05-26T01:12:08.267Z,1.93
2018-05-26T01:14:36.160Z,1.80
2018-05-26T01:17:03.612Z,1.73
2018-05-26T01:19:31.259Z,1.60
2018-05-26T01:21:58.649Z,1.37
2018-05-26T01:24:26.423Z,1.70
2018-05-26T01:26:53.787Z,1.50
2018-05-26T01:29:25.672Z,1.33
2018-05-26T01:31:52.973Z,1.20
2018-05-26T01:34:20.503Z,1.33
2018-05-26T01:36:48.446Z,1.80
2018-05-26T01:39:16.033Z,1.30
2018-05-26T01:41:44.104Z,1.43
2018-05-26T01:44:11.768Z,1.50
2018-05-26T01:46:39.544Z,1.87
2018-05-26T01:49:07.208Z,1.93
2018-05-26T01:51:35.005Z,1.60
2018-05-26T01:54:02.832Z,1.70
2018-05-26T01:56:30.592Z,1.70
2018-05-26T01:58:58.562Z,1.93
2018-05-26T02:01:26.037Z,1.70
2018-05-26T02:03:53.475Z,1.60
2018-05-26T02:06:21.589Z,1.97
2018-05-26T02:08:49.110Z,1.37
2018-05-26T02:11:16.876Z,1.40
2018-05-26T02:13:44.821Z,1.77
2018-05-26T02:16:12.242Z,1.87
2018-05-26T02:18:39.618Z,1.80
2018-05-26T02:21:07.009Z,2.10
2018-05-26T02:23:35.184Z,1.90
2018-05-26T02:26:03.060Z,1.90
2018-05-26T02:28:30.929Z,2.30
2018-05-26T02:30:58.692Z,2.30
2018-05-26T02:33:26.482Z,2.00
2018-05-26T02:35:54.330Z,1.93
2018-05-26T02:38:21.789Z,2.03
2018-05-26T02:40:49.229Z,2.10
2018-05-26T02:43:17.202Z,1.87
2018-05-26T02:45:44.655Z,2.60
2018-05-26T02:48:12.824Z,2.93
2018-05-26T02:50:40.606Z,2.47
2018-05-26T02:53:08.855Z,2.37
2018-05-26T02:55:36.215Z,2.33
2018-05-26T02:58:03.687Z,2.50
2018-05-26T03:00:31.797Z,2.83
2018-05-26T03:02:59.162Z,2.97
2018-05-26T03:05:32.204Z,2.77
2018-05-26T03:08:05.810Z,2.40
2018-05-26T03:10:39.423Z,4.57
2018-05-26T03:13:12.599Z,3.73
2018-05-26T03:15:41.106Z,3.50
2018-05-26T03:18:09.151Z,3.20
2018-05-26T03:20:37.029Z,4.27
2018-05-26T03:23:04.683Z,4.20
2018-05-26T03:25:32.674Z,3.60
2018-05-26T03:28:00.209Z,4.23
2018-05-26T03:30:28.313Z,4.00
2018-05-26T03:32:56.046Z,5.03
2018-05-26T03:35:23.790Z,4.10
2018-05-26T03:37:51.194Z,4.20
2018-05-26T03:40:18.627Z,6.73
2018-05-26T03:42:46.492Z,5.00
2018-05-26T03:45:14.066Z,4.23
2018-05-26T03:47:41.507Z,4.13
2018-05-26T03:50:09.284Z,4.90
2018-05-26T03:52:37.321Z,4.70
2018-05-26T03:55:35.420Z,4.60
2018-05-26T03:58:20.358Z,5.43
2018-05-26T04:00:47.948Z,4.27
2018-05-26T04:03:16.019Z,4.30
2018-05-26T04:05:43.907Z,4.13
2018-05-26T04:08:11.478Z,4.30
2018-05-26T04:10:39.763Z,5.13
2018-05-26T04:13:07.285Z,4.00
2018-05-26T04:15:35.271Z,4.23
2018-05-26T04:18:02.782Z,3.97
2018-05-26T04:20:30.134Z,3.70
2018-05-26T04:22:57.499Z,3.57
2018-05-26T04:25:24.917Z,3.60
2018-05-26T04:27:52.345Z,3.20
2018-05-26T04:30:19.828Z,3.43
2018-05-26T04:32:47.227Z,3.13
2018-05-26T04:35:14.709Z,3.37
2018-05-26T04:37:42.475Z,3.17
2018-05-26T04:40:10.557Z,2.80
2018-05-26T04:42:37.975Z,2.63
2018-05-26T04:45:05.530Z,3.13
2018-05-26T04:47:32.917Z,3.43
2018-05-26T04:50:01.197Z,2.90
2018-05-26T04:52:28.955Z,3.13
2018-05-26T04:54:56.423Z,3.87
2018-05-26T04:57:24.426Z,2.50
2018-05-26T04:59:51.965Z,2.77
2018-05-26T05:02:19.503Z,3.87
2018-05-26T05:04:47.274Z,4.17
2018-05-26T05:07:15.549Z,4.43
2018-05-26T05:09:43.344Z,3.80
2018-05-26T05:12:10.781Z,3.83
2018-05-26T05:14:38.596Z,3.73
2018-05-26T05:17:05.971Z,3.37
2018-05-26T05:19:33.449Z,4.23
2018-05-26T05:22:01.333Z,4.03
2018-05-26T05:24:28.775Z,3.63
2018-05-26T05:26:56.563Z,4.10
2018-05-26T05:29:24.099Z,3.70
2018-05-26T05:31:51.864Z,3.10
2018-05-26T05:34:19.835Z,2.57
2018-05-26T05:36:47.905Z,3.80
2018-05-26T05:39:15.651Z,2.57
2018-05-26T05:41:43.229Z,3.67
2018-05-26T05:44:11.229Z,3.00
2018-05-26T05:46:40.613Z,2.80
2018-05-26T05:49:08.475Z,2.73
2018-05-26T05:51:36.440Z,2.60
2018-05-26T05:54:04.352Z,3.23
2018-05-26T05:56:32.049Z,2.20
2018-05-26T05:58:59.763Z,2.73
2018-05-26T06:01:27.191Z,2.43
2018-05-26T06:03:54.993Z,2.63
2018-05-26T06:06:22.798Z,2.80
2018-05-26T06:08:50.198Z,2.30
2018-05-26T06:11:17.740Z,3.30
2018-05-26T06:13:45.709Z,2.10
2018-05-26T06:16:13.677Z,2.30
2018-05-26T06:18:41.440Z,1.87
2018-05-26T06:21:09.310Z,2.33
2018-05-26T06:23:37.817Z,1.90
2018-05-26T06:26:05.279Z,2.40
2018-05-26T06:28:32.714Z,2.40
2018-05-26T06:31:00.548Z,2.57
2018-05-26T06:33:28.036Z,3.10
2018-05-26T06:35:56.038Z,2.07
2018-05-26T06:38:23.766Z,3.13
2018-05-26T06:40:52.041Z,3.00
2018-05-26T06:43:20.014Z,2.30
2018-05-26T06:45:53.428Z,2.10
2018-05-26T06:48:20.824Z,2.20
2018-05-26T06:50:48.581Z,2.40
2018-05-26T06:53:16.102Z,4.30
2018-05-26T06:55:46.936Z,2.07
2018-05-26T06:58:14.895Z,2.17
2018-05-26T07:00:42.771Z,2.00
2018-05-26T07:03:10.317Z,1.93
2018-05-26T07:05:37.687Z,2.43
2018-05-26T07:08:06.070Z,3.53
2018-05-26T07:10:33.792Z,2.80
2018-05-26T07:13:06.225Z,2.30
2018-05-26T07:15:38.264Z,2.40
2018-05-26T07:18:08.291Z,3.50
2018-05-26T07:20:37.270Z,2.65
2018-05-26T07:23:08.620Z,3.87
2018-05-26T07:25:36.478Z,3.17
2018-05-26T07:28:04.457Z,2.72
2018-05-26T07:30:32.322Z,3.72
2018-05-26T07:33:06.198Z,2.90
2018-05-26T07:35:33.568Z,3.55
2018-05-26T07:38:01.969Z,2.70
2018-05-26T07:40:29.834Z,3.08
2018-05-26T07:42:57.498Z,4.45
2018-05-26T07:45:25.362Z,3.17
2018-05-26T07:47:53.127Z,2.87
2018-05-26T07:50:21.148Z,2.80
2018-05-26T07:52:48.667Z,2.62
2018-05-26T07:55:16.746Z,2.65
2018-05-26T07:57:44.289Z,3.80
2018-05-26T08:00:12.164Z,3.70
2018-05-26T08:02:39.693Z,2.75
2018-05-26T08:05:07.581Z,2.70
2018-05-26T08:07:35.453Z,3.05
2018-05-26T08:10:13.356Z,2.75
2018-05-26T08:12:41.618Z,2.22
2018-05-26T08:15:09.506Z,2.45
2018-05-26T08:17:37.290Z,3.03
2018-05-26T08:20:04.729Z,2.75
2018-05-26T08:22:32.278Z,2.97
2018-05-26T08:25:00.200Z,2.72
2018-05-26T08:27:27.618Z,4.70
2018-05-26T08:29:55.171Z,2.72
2018-05-26T08:32:22.764Z,2.78
2018-05-26T08:34:50.509Z,2.78
2018-05-26T08:37:18.343Z,2.53
2018-05-26T08:39:45.850Z,5.40
2018-05-26T08:42:13.291Z,2.45
2018-05-26T08:44:40.937Z,3.33
2018-05-26T08:47:09.432Z,3.85
2018-05-26T08:49:43.020Z,3.62
2018-05-26T08:52:10.983Z,2.90
2018-05-26T08:54:48.946Z,3.00
2018-05-26T08:57:16.352Z,3.30
2018-05-26T08:59:44.281Z,2.85
2018-05-26T09:02:11.730Z,2.83
2018-05-26T09:04:39.330Z,3.65
2018-05-26T09:07:07.413Z,3.67
2018-05-26T09:09:35.301Z,2.67
2018-05-26T09:12:02.828Z,2.92
2018-05-26T09:14:30.751Z,4.00
2018-05-26T09:16:58.358Z,2.92
2018-05-26T09:19:26.237Z,2.87
2018-05-26T09:21:53.629Z,2.97
2018-05-26T09:24:21.147Z,2.85
2018-05-26T09:26:57.099Z,2.92
2018-05-26T09:29:24.896Z,3.20
2018-05-26T09:31:52.421Z,3.50
2018-05-26T09:34:20.717Z,3.72
2018-05-26T09:36:48.060Z,4.20
2018-05-26T09:39:19.401Z,3.20
2018-05-26T09:41:49.791Z,3.85
2018-05-26T09:44:17.383Z,2.40
2018-05-26T09:46:44.742Z,2.95
2018-05-26T09:49:12.203Z,3.00
2018-05-26T09:51:39.676Z,2.97
2018-05-26T09:54:07.628Z,3.22
2018-05-26T09:56:35.379Z,2.67
2018-05-26T09:59:02.866Z,3.33
2018-05-26T10:01:30.720Z,2.50
2018-05-26T10:03:58.715Z,3.15
2018-05-26T10:06:26.158Z,2.78
2018-05-26T10:08:53.615Z,2.70
2018-05-26T10:11:21.614Z,2.72
2018-05-26T10:13:49.128Z,2.65
2018-05-26T10:16:23.162Z,3.00
2018-05-26T10:18:50.746Z,2.75
2018-05-26T10:21:18.160Z,2.65
2018-05-26T10:23:46.389Z,3.42
2018-05-26T10:26:13.845Z,3.17
2018-05-26T10:28:41.244Z,2.60
2018-05-26T10:31:20.101Z,2.55
2018-05-26T10:33:47.854Z,2.80
2018-05-26T10:36:15.414Z,2.90
2018-05-26T10:38:42.860Z,3.30
2018-05-26T10:41:10.799Z,2.95
2018-05-26T10:43:38.286Z,2.83
2018-05-26T10:46:18.133Z,2.80
2018-05-26T10:48:46.036Z,3.53
2018-05-26T10:51:13.763Z,3.62
2018-05-26T10:53:42.053Z,3.20
2018-05-26T10:56:15.436Z,2.50
2018-05-26T10:58:43.010Z,2.95
2018-05-26T11:01:10.764Z,2.95
2018-05-26T11:03:38.632Z,2.87
2018-05-26T11:06:14.489Z,2.50
2018-05-26T11:08:42.261Z,3.25
2018-05-26T11:11:10.391Z,2.85
2018-05-26T11:13:37.880Z,2.80
2018-05-26T11:16:05.748Z,3.35
2018-05-26T11:18:33.823Z,3.00
2018-05-26T11:21:01.289Z,3.03
2018-05-26T11:23:28.670Z,2.85
2018-05-26T11:25:56.063Z,2.60
2018-05-26T11:28:23.423Z,2.42
2018-05-26T11:31:10.394Z,2.65
2018-05-26T11:33:37.822Z,2.40
2018-05-26T11:36:05.273Z,2.55
2018-05-26T11:38:33.242Z,2.58
2018-05-26T11:41:01.029Z,2.65
2018-05-26T11:43:28.391Z,3.45
2018-05-26T11:45:55.820Z,2.50
2018-05-26T11:48:23.687Z,2.47
2018-05-26T11:50:51.424Z,2.83
2018-05-26T11:53:18.864Z,2.70
2018-05-26T11:55:46.495Z,2.83
2018-05-26T11:58:13.925Z,2.72
2018-05-26T12:00:41.690Z,2.87
2018-05-26T12:03:09.978Z,3.12
2018-05-26T12:05:38.919Z,2.60
2018-05-26T12:08:06.526Z,2.70
2018-05-26T12:10:34.420Z,2.75
2018-05-26T12:13:01.946Z,2.55
2018-05-26T12:15:29.916Z,2.22
2018-05-26T12:17:57.663Z,3.08
2018-05-26T12:20:25.243Z,2.58
2018-05-26T12:22:53.110Z,2.60
2018-05-26T12:25:20.879Z,3.00
2018-05-26T12:27:48.872Z,2.25
2018-05-26T12:30:16.328Z,2.30
2018-05-26T12:32:46.010Z,2.60
2018-05-26T12:35:13.876Z,2.50
2018-05-26T12:37:41.750Z,3.05
2018-05-26T12:40:09.564Z,2.90
2018-05-26T12:42:36.995Z,2.70
2018-05-26T12:45:04.540Z,2.67
2018-05-26T12:47:36.387Z,3.60
2018-05-26T12:50:04.143Z,2.75
2018-05-26T12:52:31.823Z,2.80
2018-05-26T12:54:59.588Z,2.75
2018-05-26T12:57:27.697Z,2.70
2018-05-26T12:59:55.211Z,2.45
2018-05-26T13:02:22.973Z,2.87
2018-05-26T13:04:50.944Z,2.75
2018-05-26T13:07:18.401Z,2.42
2018-05-26T13:09:51.109Z,3.20
2018-05-26T13:12:18.744Z,2.58
2018-05-26T13:14:46.717Z,2.58
2018-05-26T13:17:14.480Z,2.40
2018-05-26T13:19:42.259Z,2.55
2018-05-26T13:22:09.717Z,2.60
2018-05-26T13:24:37.071Z,2.97
2018-05-26T13:27:04.418Z,2.47
2018-05-26T13:29:32.026Z,2.85
2018-05-26T13:31:59.393Z,3.70
2018-05-26T13:34:26.795Z,3.28
2018-05-26T13:36:54.447Z,3.30
2018-05-26T13:39:22.236Z,3.90
2018-05-26T13:41:50.282Z,4.07
2018-05-26T13:44:18.027Z,4.03
2018-05-26T13:46:49.203Z,4.00
2018-05-26T13:49:17.360Z,4.03
2018-05-26T13:51:44.906Z,3.53
2018-05-26T13:54:12.318Z,4.05
2018-05-26T13:56:39.695Z,3.72
2018-05-26T13:59:07.074Z,3.53
2018-05-26T14:01:40.908Z,3.20
2018-05-26T14:04:08.777Z,2.95
2018-05-26T14:06:36.511Z,2.75
2018-05-26T14:09:04.107Z,2.58
2018-05-26T14:11:31.759Z,2.80
2018-05-26T14:13:59.153Z,2.62
2018-05-26T14:16:27.566Z,2.87
2018-05-26T14:18:55.046Z,2.80
2018-05-26T14:21:23.016Z,2.50
2018-05-26T14:23:50.790Z,2.40
2018-05-26T14:26:18.343Z,2.20
2018-05-26T14:28:46.122Z,2.80
2018-05-26T14:31:13.665Z,2.20
2018-05-26T14:33:41.533Z,2.62
2018-05-26T14:36:09.487Z,2.75
2018-05-26T14:38:37.310Z,2.80
2018-05-26T14:41:04.735Z,2.60
2018-05-26T14:43:32.697Z,2.80
2018-05-26T14:46:00.664Z,2.67
2018-05-26T14:48:28.538Z,2.45
2018-05-26T14:50:56.315Z,2.75
2018-05-26T14:53:23.793Z,2.65
2018-05-26T14:55:51.418Z,2.40
2018-05-26T14:58:19.434Z,2.60
2018-05-26T15:00:46.812Z,2.50
2018-05-26T15:03:14.214Z,2.55
2018-05-26T15:05:41.654Z,2.50
2018-05-26T15:08:09.419Z,2.85
2018-05-26T15:10:37.297Z,2.85
2018-05-26T15:13:04.810Z,2.85
2018-05-26T15:15:32.161Z,2.92
2018-05-26T15:18:03.868Z,2.60
2018-05-26T15:20:31.765Z,2.55
2018-05-26T15:22:59.136Z,2.80
2018-05-26T15:25:26.511Z,2.85
2018-05-26T15:27:54.004Z,2.47
2018-05-26T15:30:21.461Z,2.30
2018-05-26T15:32:49.367Z,2.70
2018-05-26T15:35:18.393Z,2.65
2018-05-26T15:37:45.751Z,3.22
2018-05-26T15:40:13.252Z,3.20
2018-05-26T15:42:41.095Z,2.58
2018-05-26T15:45:08.876Z,2.83
2018-05-26T15:47:36.948Z,2.45
2018-05-26T15:50:04.409Z,2.47
2018-05-26T15:52:33.180Z,3.12
2018-05-26T15:55:01.148Z,2.90
2018-05-26T15:57:29.044Z,2.35
2018-05-26T15:59:56.440Z,2.60
2018-05-26T16:02:24.032Z,2.95
2018-05-26T16:04:53.039Z,2.60
2018-05-26T16:07:21.418Z,2.45
2018-05-26T16:09:52.548Z,2.70
2018-05-26T16:12:23.401Z,2.65
2018-05-26T16:14:51.888Z,2.92
2018-05-26T16:17:19.244Z,2.60
2018-05-26T16:19:46.884Z,3.30
2018-05-26T16:22:14.647Z,2.50
2018-05-26T16:24:47.749Z,2.80
2018-05-26T16:27:16.427Z,2.50
2018-05-26T16:29:44.184Z,2.50
2018-05-26T16:32:11.664Z,2.28
2018-05-26T16:34:39.221Z,2.40
2018-05-26T16:37:07.083Z,2.40
2018-05-26T16:39:34.443Z,2.37
2018-05-26T16:42:02.397Z,3.30
2018-05-26T16:44:37.024Z,2.37
2018-05-26T16:47:04.585Z,2.90
2018-05-26T16:49:32.359Z,2.10
2018-05-26T16:52:04.920Z,2.87
2018-05-26T16:54:32.302Z,2.95
2018-05-26T16:56:59.840Z,2.47
2018-05-26T16:59:31.390Z,2.42
2018-05-26T17:01:59.286Z,2.33
2018-05-26T17:04:26.740Z,2.47
2018-05-26T17:06:56.352Z,2.60
2018-05-26T17:09:23.902Z,2.70
2018-05-26T17:11:51.422Z,2.50
2018-05-26T17:14:19.328Z,2.40
2018-05-26T17:16:47.282Z,2.58
2018-05-26T17:19:14.840Z,2.30
2018-05-26T17:21:42.307Z,2.60
2018-05-26T17:24:10.077Z,2.00
2018-05-26T17:26:37.621Z,2.22
2018-05-26T17:29:05.697Z,3.03
2018-05-26T17:31:33.567Z,2.42
2018-05-26T17:34:01.322Z,2.37
2018-05-26T17:36:28.887Z,2.33
2018-05-26T17:38:56.862Z,2.05
2018-05-26T17:41:24.631Z,2.20
2018-05-26T17:43:52.704Z,2.20
2018-05-26T17:46:20.572Z,2.10
2018-05-26T17:48:49.043Z,2.62
2018-05-26T17:51:17.012Z,2.97
2018-05-26T17:53:44.811Z,2.03
2018-05-26T17:56:12.386Z,2.08
2018-05-26T17:58:39.793Z,2.40
2018-05-26T18:01:07.566Z,2.10
2018-05-26T18:03:36.049Z,2.25
2018-05-26T18:06:04.626Z,2.80
2018-05-26T18:08:32.561Z,2.72
2018-05-26T18:11:00.060Z,2.87
2018-05-26T18:13:27.518Z,2.92
2018-05-26T18:15:55.295Z,2.25
2018-05-26T18:18:23.651Z,2.60
2018-05-26T18:20:51.624Z,2.55
2018-05-26T18:23:19.421Z,2.67
2018-05-26T18:25:46.786Z,2.30
2018-05-26T18:28:14.415Z,2.10
2018-05-26T18:30:49.029Z,2.80
2018-05-26T18:33:16.908Z,2.67
2018-05-26T18:35:45.172Z,2.30
2018-05-26T18:38:13.143Z,2.12
2018-05-26T18:40:45.108Z,2.45
2018-05-26T18:43:13.075Z,2.22
2018-05-26T18:45:40.941Z,2.33
2018-05-26T18:48:08.857Z,2.05
2018-05-26T18:50:36.266Z,2.08
2018-05-26T18:53:04.217Z,2.62
2018-05-26T18:55:31.578Z,2.20
2018-05-26T18:57:58.986Z,2.17
2018-05-26T19:00:30.023Z,2.47
2018-05-26T19:02:57.444Z,2.33
2018-05-26T19:05:25.415Z,2.00
2018-05-26T19:07:53.405Z,2.10
2018-05-26T19:10:20.855Z,2.00
2018-05-26T19:12:48.848Z,2.03
2018-05-26T19:15:16.224Z,2.17
2018-05-26T19:17:43.774Z,2.47
2018-05-26T19:20:11.359Z,2.20
2018-05-26T19:22:38.845Z,2.30
2018-05-26T19:25:06.624Z,1.93
2018-05-26T19:27:37.651Z,1.80
2018-05-26T19:30:09.539Z,2.37
2018-05-26T19:32:37.391Z,2.20
2018-05-26T19:35:05.139Z,1.80
2018-05-26T19:37:33.009Z,2.50
2018-05-26T19:40:00.999Z,2.10
2018-05-26T19:42:29.378Z,2.30
2018-05-26T19:44:57.708Z,2.93
2018-05-26T19:47:25.213Z,2.40
2018-05-26T19:49:53.284Z,2.00
2018-05-26T19:52:21.646Z,2.07
2018-05-26T19:54:49.540Z,2.17
2018-05-26T19:57:17.075Z,2.00
2018-05-26T19:59:44.645Z,2.27
2018-05-26T20:02:12.078Z,2.13
2018-05-26T20:04:39.636Z,2.50
2018-05-26T20:07:08.132Z,2.23
2018-05-26T20:09:35.858Z,2.07
2018-05-26T20:12:03.457Z,1.80
2018-05-26T20:14:31.508Z,2.17
2018-05-26T20:16:59.292Z,2.00
2018-05-26T20:19:27.172Z,2.00
2018-05-26T20:21:54.943Z,2.03
2018-05-26T20:24:22.314Z,2.30
2018-05-26T20:26:51.172Z,2.13
2018-05-26T20:29:19.348Z,2.20
2018-05-26T20:31:47.223Z,1.90
2018-05-26T20:34:14.982Z,2.23
2018-05-26T20:36:44.819Z,2.13
2018-05-26T20:39:12.350Z,2.20
2018-05-26T20:41:40.439Z,2.53
2018-05-26T20:44:07.835Z,2.07
2018-05-26T20:46:35.439Z,2.00
2018-05-26T20:49:04.541Z,2.00
2018-05-26T20:51:32.401Z,2.00
2018-05-26T20:54:00.379Z,1.90
2018-05-26T20:56:28.239Z,1.83
2018-05-26T20:58:56.121Z,2.07
2018-05-26T21:01:27.662Z,1.93
2018-05-26T21:03:56.404Z,2.10
2018-05-26T21:06:24.235Z,2.00
2018-05-26T21:08:52.899Z,2.23
2018-05-26T21:11:21.382Z,2.37
2018-05-26T21:13:50.477Z,1.97
2018-05-26T21:16:20.392Z,1.87
2018-05-26T21:18:48.462Z,2.10
2018-05-26T21:21:15.911Z,2.00
2018-05-26T21:23:43.481Z,2.37
2018-05-26T21:26:11.041Z,2.03
2018-05-26T21:28:38.864Z,1.90
2018-05-26T21:31:06.886Z,1.97
2018-05-26T21:33:34.847Z,1.90
2018-05-26T21:36:03.329Z,2.30
2018-05-26T21:38:31.108Z,2.13
2018-05-26T21:40:59.063Z,2.17
2018-05-26T21:43:28.263Z,2.40
2018-05-26T21:45:56.230Z,2.13
2018-05-26T21:48:23.623Z,2.00
2018-05-26T21:50:51.006Z,2.40
2018-05-26T21:53:19.409Z,2.27
2018-05-26T21:55:47.436Z,1.63
2018-05-26T21:58:22.439Z,1.90
2018-05-26T22:00:50.600Z,1.90
2018-05-26T22:03:18.472Z,1.90
2018-05-26T22:05:46.967Z,2.00
2018-05-26T22:08:16.967Z,2.10
2018-05-26T22:10:44.814Z,2.67
2018-05-26T22:13:12.397Z,2.53
2018-05-26T22:15:40.364Z,2.80
2018-05-26T22:18:08.250Z,3.20
2018-05-26T22:20:35.789Z,3.10
2018-05-26T22:23:03.602Z,3.43
2018-05-26T22:25:36.484Z,3.63
2018-05-26T22:28:04.376Z,3.00
2018-05-26T22:30:32.071Z,3.07
2018-05-26T22:32:59.632Z,3.17
2018-05-26T22:35:27.458Z,3.10
2018-05-26T22:37:54.854Z,3.30
2018-05-26T22:40:22.679Z,2.50
2018-05-26T22:45:23.994Z,3.00
2018-05-26T22:47:51.443Z,2.27
2018-05-26T22:50:19.352Z,2.37
2018-05-26T22:52:48.774Z,2.70
2018-05-26T22:55:16.716Z,2.23
2018-05-26T22:57:44.456Z,2.50
2018-05-26T23:00:12.417Z,2.50
2018-05-26T23:02:40.250Z,2.17
2018-05-26T23:05:07.950Z,2.30
2018-05-26T23:07:35.832Z,2.10
2018-05-26T23:10:03.404Z,2.20
2018-05-26T23:12:30.956Z,2.23
2018-05-26T23:14:58.364Z,2.40
2018-05-26T23:17:25.949Z,2.10
2018-05-26T23:19:54.228Z,1.83
2018-05-26T23:22:24.143Z,1.90
2018-05-26T23:24:52.451Z,2.43
2018-05-26T23:27:19.848Z,1.90
2018-05-26T23:29:47.207Z,1.93
2018-05-26T23:32:15.100Z,2.10
2018-05-26T23:34:42.863Z,1.90
2018-05-26T23:37:11.151Z,1.90
2018-05-26T23:39:40.957Z,2.13
2018-05-26T23:42:09.026Z,1.80
2018-05-26T23:44:36.995Z,1.73
2018-05-26T23:47:04.371Z,2.07
2018-05-26T23:49:35.879Z,2.37
2018-05-26T23:52:03.267Z,1.97
2018-05-26T23:54:30.763Z,2.07
2018-05-26T23:56:59.459Z,1.77
2018-05-26T23:59:28.111Z,1.90
